This is the latest recevied weather packets stored in our database for station/object SP9INZ-13. If no packets are shown the sender has not sent any weather packets the latest 10 day(s).
| Time | Temp. | Humidity | Pressure | Rain* | Wind** | Luminosity | Snow |
|---|---|---|---|---|---|---|---|
| 1777759740 | 14.44° C | 53% | 1025.8 hPa | - | - | - | - |
| 1777758781 | 15° C | 52% | 1025.8 hPa | - | - | - | - |
| 1777757857 | 15° C | 52% | 1025.9 hPa | - | - | - | - |
| 1777757824 | 15° C | 52% | 1025.9 hPa | - | - | - | - |
| 1777756865 | 15° C | 51% | 1026 hPa | - | - | - | - |
| 1777755907 | 15.56° C | 50% | 1026.1 hPa | - | - | - | - |
| 1777754950 | 16.11° C | 48% | 1026 hPa | - | - | - | - |
| 1777753991 | 16.67° C | 47% | 1026.3 hPa | - | - | - | - |
| 1777753033 | 16.67° C | 46% | 1026.3 hPa | - | - | - | - |
| 1777752075 | 17.78° C | 44% | 1026.3 hPa | - | - | - | - |
| 1777751117 | 17.78° C | 44% | 1026.3 hPa | - | - | - | - |
| 1777750273 | 18.33° C | 43% | 1026.1 hPa | - | - | - | - |
| 1777750159 | 18.33° C | 43% | 1026.1 hPa | - | - | - | - |
| 1777749201 | 18.89° C | 42% | 1026 hPa | - | - | - | - |
| 1777748243 | 18.89° C | 41% | 1025.9 hPa | - | - | - | - |
| 1777747292 | 19.44° C | 40% | 1025.8 hPa | - | - | - | - |
| 1777747285 | 19.44° C | 40% | 1025.8 hPa | - | - | - | - |
| 1777746327 | 19.44° C | 39% | 1025.8 hPa | - | - | - | - |
| 1777745369 | 21.11° C | 36% | 1025.4 hPa | - | - | - | - |
| 1777744411 | 21.11° C | 36% | 1025.5 hPa | - | - | - | - |
| 1777743453 | 21.67° C | 35% | 1025.4 hPa | - | - | - | - |
| 1777742495 | 23.89° C | 32% | 1024.5 hPa | - | - | - | - |
| 1777741537 | 23.89° C | 31% | 1024.6 hPa | - | - | - | - |
| 1777740579 | 26.67° C | 26% | 1023.6 hPa | - | - | - | - |
| 1777739621 | 25.56° C | 28% | 1024.1 hPa | - | - | - | - |
* Rain since midnight (hover to see other rain measurements)
** Current wind speed in m/s (hover to see current wind gust speed)